createdAt,value
2019-02-16T00:01:55.545Z,4.30
2019-02-16T00:04:25.147Z,3.70
2019-02-16T00:06:54.485Z,4.20
2019-02-16T00:09:24.116Z,4.40
2019-02-16T00:11:53.458Z,4.67
2019-02-16T00:14:24.552Z,3.83
2019-02-16T00:16:54.227Z,4.47
2019-02-16T00:19:23.576Z,4.70
2019-02-16T00:21:53.162Z,5.63
2019-02-16T00:24:22.507Z,5.43
2019-02-16T00:26:52.044Z,4.80
2019-02-16T00:29:21.639Z,5.57
2019-02-16T00:31:51.234Z,5.60
2019-02-16T00:34:20.577Z,6.53
2019-02-16T00:36:50.207Z,5.00
2019-02-16T00:39:19.555Z,4.90
2019-02-16T00:41:49.200Z,6.70
2019-02-16T00:44:18.554Z,5.33
2019-02-16T00:46:48.423Z,5.90
2019-02-16T00:49:17.762Z,5.43
2019-02-16T00:51:47.191Z,7.47
2019-02-16T00:54:16.538Z,5.40
2019-02-16T00:56:46.411Z,5.42
2019-02-16T00:59:15.765Z,5.97
2019-02-16T01:01:45.589Z,5.50
2019-02-16T01:04:15.233Z,6.10
2019-02-16T01:06:44.562Z,5.57
2019-02-16T01:09:14.461Z,5.00
2019-02-16T01:11:44.033Z,5.33
2019-02-16T01:14:13.768Z,6.10
2019-02-16T01:16:43.454Z,8.47
2019-02-16T01:19:13.503Z,5.40
2019-02-16T01:21:43.133Z,7.20
2019-02-16T01:24:12.561Z,5.53
2019-02-16T01:26:42.427Z,5.58
2019-02-16T01:29:12.059Z,5.50
2019-02-16T01:31:41.468Z,5.73
2019-02-16T01:34:10.808Z,7.10
2019-02-16T01:36:40.444Z,7.10
2019-02-16T01:39:11.058Z,6.33
2019-02-16T01:41:40.393Z,6.17
2019-02-16T01:44:10.029Z,6.50
2019-02-16T01:46:39.473Z,6.67
2019-02-16T01:49:08.936Z,6.13
2019-02-16T01:51:38.697Z,5.50
2019-02-16T01:54:08.334Z,7.10
2019-02-16T01:56:37.908Z,6.83
2019-02-16T01:59:07.611Z,7.72
2019-02-16T02:01:36.973Z,5.60
2019-02-16T02:04:07.132Z,6.60
2019-02-16T02:06:38.679Z,6.20
2019-02-16T02:09:08.324Z,6.60
2019-02-16T02:11:37.655Z,6.43
2019-02-16T02:14:07.599Z,6.40
2019-02-16T02:16:36.950Z,6.67
2019-02-16T02:19:06.631Z,8.13
2019-02-16T02:21:41.207Z,6.83
2019-02-16T02:24:07.278Z,7.20
2019-02-16T02:26:36.609Z,6.83
2019-02-16T02:29:05.959Z,4.87
2019-02-16T02:31:37.433Z,5.10
2019-02-16T02:34:06.635Z,5.70
2019-02-16T02:36:36.286Z,5.15
2019-02-16T02:39:06.082Z,5.20
2019-02-16T02:41:35.884Z,5.13
2019-02-16T02:44:05.511Z,5.10
2019-02-16T02:46:34.868Z,5.63
2019-02-16T02:49:04.443Z,5.43
2019-02-16T02:51:33.796Z,4.80
2019-02-16T02:54:03.742Z,6.35
2019-02-16T02:56:33.823Z,4.93
2019-02-16T02:59:03.689Z,7.42
2019-02-16T03:01:33.062Z,4.73
2019-02-16T03:04:02.670Z,5.03
2019-02-16T03:06:32.023Z,6.07
2019-02-16T03:09:01.821Z,4.95
2019-02-16T03:11:32.230Z,5.33
2019-02-16T03:14:01.858Z,5.27
2019-02-16T03:16:31.500Z,6.03
2019-02-16T03:19:00.843Z,5.20
2019-02-16T03:21:30.537Z,5.50
2019-02-16T03:23:59.883Z,5.40
2019-02-16T03:26:41.780Z,6.37
2019-02-16T11:23:35.100Z,12.43
2019-02-16T11:26:06.721Z,11.35
2019-02-16T11:28:43.565Z,12.40
2019-02-16T11:31:30.002Z,12.95
2019-02-16T11:34:06.835Z,16.63
2019-02-16T11:36:40.755Z,16.07
2019-02-16T11:39:26.938Z,12.60
2019-02-16T11:47:45.088Z,15.27
2019-02-16T11:50:16.087Z,13.75
2019-02-16T11:52:52.905Z,14.83
2019-02-16T11:55:24.253Z,15.03
2019-02-16T11:58:12.079Z,13.83
2019-02-16T12:03:56.144Z,14.15
2019-02-16T12:06:30.444Z,13.80
2019-02-16T12:09:02.028Z,15.00
2019-02-16T12:11:37.336Z,16.00
2019-02-16T12:14:20.845Z,15.45
2019-02-16T12:17:07.169Z,16.50
2019-02-16T12:19:47.724Z,14.37
2019-02-16T12:22:19.037Z,12.35
2019-02-16T12:25:04.827Z,14.40
2019-02-16T12:27:22.775Z,13.50
2019-02-16T12:29:54.035Z,14.80
2019-02-16T12:32:30.837Z,14.10
2019-02-16T12:35:20.424Z,17.40
2019-02-16T12:37:52.093Z,13.10
2019-02-16T12:40:29.036Z,14.10
2019-02-16T12:43:03.971Z,17.50
2019-02-16T12:45:34.992Z,18.07
2019-02-16T12:48:06.002Z,13.60
2019-02-16T12:50:39.717Z,15.50
2019-02-16T12:53:27.400Z,12.78
2019-02-16T12:56:10.859Z,13.75
2019-02-16T12:58:42.206Z,15.70
2019-02-16T13:01:31.356Z,13.17
2019-02-16T13:04:03.975Z,15.20
2019-02-16T13:06:34.982Z,15.30
2019-02-16T13:09:11.434Z,15.73
2019-02-16T13:11:57.635Z,16.70
2019-02-16T13:14:35.180Z,14.93
2019-02-16T13:17:09.268Z,16.80
2019-02-16T13:19:40.255Z,13.47
2019-02-16T13:22:11.263Z,14.77
2019-02-16T13:24:58.514Z,16.23
2019-02-16T13:27:45.950Z,14.90
2019-02-16T13:30:17.235Z,14.73
2019-02-16T13:32:57.304Z,15.27
2019-02-16T13:35:31.265Z,15.17
2019-02-16T13:38:12.796Z,16.62
2019-02-16T13:40:55.728Z,13.63
2019-02-16T13:43:27.179Z,17.30
2019-02-16T13:46:01.154Z,15.33
2019-02-16T13:48:32.446Z,15.37
2019-02-16T13:51:12.486Z,16.20
2019-02-16T13:53:52.623Z,16.43
2019-02-16T13:56:23.868Z,15.30
2019-02-16T13:58:56.363Z,16.10
2019-02-16T14:01:33.331Z,14.10
2019-02-16T14:04:13.110Z,14.83
2019-02-16T14:06:46.789Z,15.77
2019-02-16T14:09:18.115Z,14.80
2019-02-16T14:11:51.998Z,14.10
2019-02-16T14:14:25.677Z,14.30
2019-02-16T14:17:00.137Z,16.87
2019-02-16T14:19:29.535Z,19.60
2019-02-16T14:21:59.913Z,14.40
2019-02-16T14:24:43.187Z,15.50
2019-02-16T14:27:12.548Z,12.63
2019-02-16T14:29:42.987Z,14.65
2019-02-16T14:32:12.774Z,20.37
2019-02-16T14:34:42.428Z,14.93
2019-02-16T14:37:22.085Z,13.53
2019-02-16T14:39:51.436Z,16.10
2019-02-16T14:42:20.782Z,14.30
2019-02-16T14:44:50.310Z,16.73
2019-02-16T14:47:19.672Z,17.13
2019-02-16T14:49:49.312Z,13.90
2019-02-16T14:52:18.678Z,16.57
2019-02-16T14:54:48.323Z,15.63
2019-02-16T14:57:18.998Z,18.17
2019-02-16T14:59:48.345Z,17.53
2019-02-16T15:02:17.958Z,17.63
2019-02-16T15:04:47.495Z,17.77
2019-02-16T15:07:16.849Z,16.10
2019-02-16T15:09:46.594Z,19.10
2019-02-16T15:12:15.962Z,16.37
2019-02-16T15:14:45.454Z,16.77
2019-02-16T15:17:15.475Z,15.50
2019-02-16T15:19:45.186Z,18.03
2019-02-16T15:22:14.788Z,21.70
2019-02-16T15:24:44.451Z,18.43
2019-02-16T15:27:13.820Z,18.83
2019-02-16T15:29:43.935Z,19.63
2019-02-16T15:32:13.550Z,20.63
2019-02-16T15:34:42.898Z,18.77
2019-02-16T15:37:12.586Z,19.42
2019-02-16T15:39:41.974Z,19.67
2019-02-16T15:42:11.630Z,19.97
2019-02-16T15:44:42.559Z,16.93
2019-02-16T15:47:12.221Z,17.87
2019-02-16T15:49:41.574Z,19.00
2019-02-16T15:52:10.968Z,21.97
2019-02-16T15:54:40.507Z,18.80
2019-02-16T15:57:19.957Z,19.30
2019-02-16T15:59:49.606Z,19.57
2019-02-16T16:02:19.031Z,18.47
2019-02-16T16:04:48.664Z,19.30
2019-02-16T16:07:18.183Z,21.63
2019-02-16T16:10:05.033Z,19.20
2019-02-16T16:12:41.812Z,20.90
2019-02-16T16:15:13.124Z,18.60
2019-02-16T16:17:49.888Z,16.83
2019-02-16T16:20:21.164Z,19.00
2019-02-16T16:22:55.007Z,23.53
2019-02-16T16:25:35.312Z,17.83
2019-02-16T16:28:06.668Z,14.70
2019-02-16T16:30:44.466Z,17.93
2019-02-16T16:33:18.048Z,16.90
2019-02-16T16:35:49.532Z,17.10
2019-02-16T16:38:26.071Z,16.30
2019-02-16T16:40:59.969Z,18.62
2019-02-16T16:43:47.494Z,18.30
2019-02-16T16:46:18.483Z,26.23
2019-02-16T16:49:04.464Z,17.80
2019-02-16T16:51:41.129Z,18.97
2019-02-16T16:54:12.568Z,18.67
2019-02-16T16:56:46.217Z,19.30
2019-02-16T16:59:17.790Z,24.02
2019-02-16T17:02:04.887Z,21.97
2019-02-16T17:04:39.334Z,19.03
2019-02-16T17:07:27.007Z,17.95
2019-02-16T17:09:58.592Z,20.60
2019-02-16T17:12:35.834Z,18.00
2019-02-16T17:15:14.772Z,22.77
2019-02-16T17:17:45.773Z,17.77
2019-02-16T17:20:32.013Z,18.93
2019-02-16T17:23:03.304Z,17.57
2019-02-16T17:25:49.596Z,18.07
2019-02-16T17:28:26.597Z,20.67
2019-02-16T17:31:07.717Z,19.80
2019-02-16T17:33:41.842Z,17.50
2019-02-16T17:36:21.788Z,21.48
2019-02-16T17:38:52.785Z,17.77
2019-02-16T17:41:26.467Z,17.90
2019-02-16T17:44:00.417Z,21.23
2019-02-16T17:46:35.272Z,20.57
2019-02-16T17:49:09.529Z,20.27
2019-02-16T17:51:46.446Z,23.70
2019-02-16T17:54:23.479Z,21.27
2019-02-16T17:56:57.205Z,22.50
2019-02-16T17:59:34.319Z,21.33
2019-02-16T18:02:21.779Z,20.53
2019-02-16T18:04:52.894Z,26.13
2019-02-16T18:07:32.795Z,27.23
2019-02-16T18:10:13.018Z,29.20
2019-02-16T18:12:54.869Z,24.45
2019-02-16T18:15:35.243Z,27.13
2019-02-16T18:18:12.619Z,26.40
2019-02-16T18:20:44.106Z,23.43
2019-02-16T18:23:15.449Z,23.67
2019-02-16T18:25:54.968Z,23.53
2019-02-16T18:28:28.625Z,28.40
2019-02-16T18:31:02.432Z,27.53
2019-02-16T18:33:33.473Z,23.00
2019-02-16T18:36:07.424Z,24.00
2019-02-16T18:38:54.787Z,21.70
2019-02-16T18:41:26.009Z,22.27
2019-02-16T18:43:57.010Z,23.13
2019-02-16T18:46:34.005Z,23.40
2019-02-16T18:49:22.788Z,23.00
2019-02-16T18:51:53.888Z,21.23
2019-02-16T18:54:33.736Z,24.30
2019-02-16T18:57:13.539Z,21.43
2019-02-16T18:59:44.712Z,23.53
2019-02-16T19:02:21.584Z,24.07
2019-02-16T19:04:52.755Z,31.23
2019-02-16T19:07:23.749Z,23.57
2019-02-16T19:09:57.669Z,26.70
2019-02-16T19:12:28.647Z,31.03
2019-02-16T19:15:02.395Z,31.07
2019-02-16T19:17:42.651Z,27.23
2019-02-16T19:20:13.996Z,23.97
2019-02-16T19:22:51.022Z,23.93
2019-02-16T19:25:34.278Z,28.10
2019-02-16T19:28:08.745Z,29.55
2019-02-16T19:30:46.682Z,29.47
2019-02-16T19:33:20.905Z,32.43
2019-02-16T19:35:51.978Z,26.60
2019-02-16T19:38:39.763Z,28.00
2019-02-16T19:41:17.533Z,33.07
2019-02-16T19:44:01.512Z,28.13
2019-02-16T19:46:48.814Z,28.70
2019-02-16T19:49:34.818Z,29.40
2019-02-16T19:52:05.932Z,28.47
2019-02-16T19:54:52.139Z,30.50
2019-02-16T19:57:38.407Z,30.87
2019-02-16T20:00:29.254Z,28.83
2019-02-16T20:03:02.970Z,29.10
2019-02-16T20:05:41.135Z,30.67
2019-02-16T20:08:17.874Z,26.50
2019-02-16T20:10:51.849Z,25.50
2019-02-16T20:13:23.100Z,30.53
2019-02-16T20:15:54.102Z,26.23
2019-02-16T20:18:34.077Z,24.73
2019-02-16T20:21:23.235Z,27.53
2019-02-16T20:24:00.204Z,22.10
2019-02-16T20:26:43.454Z,27.50
2019-02-16T20:29:32.964Z,25.48
2019-02-16T20:32:10.091Z,25.07
2019-02-16T20:34:41.325Z,28.00
2019-02-16T20:37:12.669Z,27.30
2019-02-16T20:39:43.807Z,26.77
2019-02-16T20:42:31.139Z,30.68
2019-02-16T20:45:05.705Z,27.40
2019-02-16T20:47:37.960Z,28.63
2019-02-16T20:50:10.197Z,28.60
2019-02-16T20:52:46.925Z,31.83
2019-02-16T20:55:26.749Z,31.20
2019-02-16T20:57:57.993Z,28.90
2019-02-16T21:00:46.685Z,30.97
2019-02-16T21:03:20.664Z,28.20
2019-02-16T21:06:00.939Z,25.23
2019-02-16T21:08:40.716Z,29.57
2019-02-16T21:11:29.910Z,28.77
2019-02-16T21:14:02.210Z,29.42
2019-02-16T21:16:33.194Z,23.90
2019-02-16T21:19:20.544Z,25.07
2019-02-16T21:21:51.539Z,27.47
2019-02-16T21:24:22.840Z,24.95
2019-02-16T21:26:56.659Z,25.10
2019-02-16T21:29:40.027Z,24.97
2019-02-16T21:32:11.388Z,25.52
2019-02-16T21:34:48.471Z,23.13
2019-02-16T21:37:20.050Z,24.70
2019-02-16T21:39:57.040Z,27.07
2019-02-16T21:42:33.769Z,27.50
2019-02-16T21:45:05.049Z,27.17
2019-02-16T21:47:36.319Z,27.50
2019-02-16T21:50:15.604Z,26.33
2019-02-16T21:52:46.633Z,29.87
2019-02-16T21:55:21.153Z,29.10
2019-02-16T21:58:07.948Z,32.97
2019-02-16T22:00:55.224Z,27.03
2019-02-16T22:03:28.954Z,28.30
2019-02-16T22:06:16.176Z,28.30
2019-02-16T22:09:02.377Z,27.10
2019-02-16T22:11:43.020Z,26.00
2019-02-16T22:14:12.593Z,27.32
2019-02-16T22:16:42.197Z,26.50
2019-02-16T22:19:12.113Z,30.33
2019-02-16T22:21:41.956Z,32.93
2019-02-16T22:24:11.606Z,29.05
2019-02-16T22:26:41.241Z,29.30
2019-02-16T22:29:10.609Z,28.83
2019-02-16T22:31:40.474Z,27.20
2019-02-16T22:34:09.895Z,27.40
2019-02-16T22:36:39.634Z,31.97
2019-02-16T22:39:09.558Z,31.73
2019-02-16T22:41:39.319Z,28.30
2019-02-16T22:44:09.093Z,27.97
2019-02-16T22:46:38.589Z,30.43
2019-02-16T22:49:07.934Z,28.50
2019-02-16T22:51:37.404Z,33.43
2019-02-16T22:54:06.822Z,32.67
2019-02-16T22:56:36.411Z,30.00
2019-02-16T22:59:06.322Z,30.00
2019-02-16T23:04:23.704Z,32.00
2019-02-16T23:06:53.374Z,32.42
2019-02-16T23:09:24.611Z,26.63
2019-02-16T23:11:53.988Z,30.97
2019-02-16T23:14:24.265Z,31.13
2019-02-16T23:16:54.680Z,31.60
2019-02-16T23:19:24.290Z,33.20
2019-02-16T23:21:53.656Z,30.17
2019-02-16T23:24:23.000Z,29.43
2019-02-16T23:26:52.698Z,29.73
2019-02-16T23:29:22.300Z,32.60
2019-02-16T23:31:51.681Z,27.93
2019-02-16T23:34:21.047Z,30.27
2019-02-16T23:36:50.531Z,28.70
2019-02-16T23:39:19.911Z,33.80
2019-02-16T23:41:49.260Z,29.97
2019-02-16T23:44:18.708Z,25.30
2019-02-16T23:46:48.061Z,32.33
2019-02-16T23:49:17.479Z,29.75
2019-02-16T23:51:47.077Z,31.27
2019-02-16T23:54:20.171Z,27.17
2019-02-16T23:56:49.726Z,26.67
2019-02-16T23:59:19.085Z,22.50
